Tiempo atmosférico en la estación meteorológica de Marbella, Puerto, Málaga (6 m.)



Fecha
DESCASC
Temp. máxima en grados centígrados (hora)
DESCASC
Temp. mínima en grados centígrados (hora)
DESCASC
Temp. media en grados centígrados
DESCASC
Racha de viento máxima en m/sg (hora)
DESCASC
Velocidad máxima media en intervalos de 10 minutos(hora)
DESCASC
Precipitaciones diarias en mm
DESCASC
Precipitaciones de 00:00 a 06:00 en mm
DESCASC
Precipitaciones de 06:00 a 12:00 en mm
DESCASC
Precipitaciones de 12:00 a 18:00 en mm
DESCASC
Precipitaciones de 18:00 a 24:00 en mm
DESCASC
23-06-2019 25.5 (17:20) 18.5 (05:10) 22 3.06 (05:00) 2.5 (05:00) 0 0 0 0 0
22-06-2019 23.7 (19:20) 18 (04:50) 20.9 11.11 (12:30) 8.89 (12:40) 0 0 0 0 0
21-06-2019 24 (17:20) 16.9 (07:30) 20.4 10 (18:40) 5.83 (18:40) 0 0 0 0 0
20-06-2019 22.4 (15:40) 17.9 (00:00) 20.1 14.44 (16:10) 11.94 (16:10) 0 0 0 0 0
19-06-2019 26.2 (19:30) 17.1 (00:00) 21.7 8.06 (19:50) 5.83 (19:50) 0 0 0 0 0
18-06-2019 24.1 (18:40) 16.1 (00:00) 20.1 6.94 (14:10) 5.56 (14:10) 0 0 0 0 0
17-06-2019 21.5 (17:20) 16.5 (00:00) 19 4.17 (02:00) 2.78 (04:20) 0 0 0 0 0
16-06-2019 21.7 (14:40) 15.8 (00:00) 18.8 8.61 (15:20) 7.22 (16:40) 0 0 0 0 0
15-06-2019 20.9 (16:10) 15.9 (00:00) 18.4 5.28 (13:00) 4.44 (12:50) 0 0 0 0 0
14-06-2019 19.8 (16:40) 17.2 (00:00) 18.5 16.67 (13:50) 13.89 (14:40) 0 0 0 0 0
13-06-2019 23.8 (13:50) 17.8 (00:00) 20.8 5.28 (02:50) 3.89 (02:50) 0 0 0 0 0
12-06-2019 19.9 (17:50) 17.1 (00:00) 18.5 15.83 (03:40) 12.5 (03:30) 0 0 0 0 0
11-06-2019 23.7 (20:10) 16.8 (00:00) 20.3 17.78 (18:00) 14.44 (17:40) 0 0 0 0 0
10-06-2019 23.4 (20:00) 17 (00:00) 20.2 18.61 (17:40) 12.22 (17:00) 0 0 0 0 0
09-06-2019 24 (19:30) 18.4 (00:00) 21.2 14.44 (17:10) 12.22 (17:20) 0 0 0 0 0
08-06-2019 21.8 (10:30) 17 (00:00) 19.4 11.67 (12:10) 9.72 (12:00) 0 0 0 0 0
07-06-2019 23.6 (11:50) 16.9 (00:00) 20.3 12.5 (09:50) 10.28 (09:50) 0 0 0 0 0
06-06-2019 23.5 (19:00) 16.3 (00:00) 19.9 14.17 (19:40) 11.94 (20:00) 0 0 0 0 0
05-06-2019 27.6 (17:50) 18.9 (00:00) 23.3 11.94 (00:30) 10 (00:40) 0 0 0 0 0
04-06-2019 24.8 (20:00) 16.3 (00:00) 20.5 14.17 (18:30) 12.5 (19:20) 0 0 0 0 0
03-06-2019 21.9 (20:10) 17.4 (00:00) 19.6 5 (05:10) 3.61 (05:10) 0 0 0 0 0
02-06-2019 22.7 (18:40) 17.3 (00:00) 20 7.78 (12:10) 6.11 (12:10) 0 0 0 0 0
01-06-2019 22 (10:20) 17.8 (00:00) 19.9 9.72 (09:00) 7.5 (12:40) 0 0 0 0 0
31-05-2019 21.2 (09:30) 18.9 (00:00) 20.1 11.94 (14:50) 9.17 (15:00) 0 0 0 0 0
30-05-2019 21 (22:30) 18.9 (00:00) 19.9 12.5 (15:30) 9.72 (14:20) 0 0 0 0 0
29-05-2019 22.5 (11:10) 19.1 (00:00) 20.8 11.94 (05:20) 7.78 (05:10) 0 0 0 0 0
28-05-2019 23.5 (19:10) 18 (00:00) 20.8 3.61 (01:30) 2.78 (01:30) 0 0 0 0 0
27-05-2019 23.6 (17:40) 16.5 (00:00) 20.1 5 (19:10) 4.17 (21:20) 0 0 0 0 0

Gráficas

Temp. máximas Temp. mínimas Temp. medias Precipitaciones Rachas de viento máximas Velocidades máximas media en intervalos de 10 minutos

Datos horarios

Fecha y hora oficial Temperatura (ºC) Velocidad del viento (km/h) Dirección del viento Racha (km/h) Dirección de racha Precipitación (mm) Presión (hPa) Tendencia (hPa) Humedad (%)
2019-06-25 23:00:00 20.9 0 Calma 3 Sudoeste 0 -- -- 88
2019-06-25 22:00:00 21.4 0 Calma 4 Este 0 -- -- 86
2019-06-25 21:00:00 21.6 2 Este 4 Sudeste 0 -- -- 85
2019-06-25 20:00:00 22.9 2 Sudeste 4 Sur 0 -- -- 80
2019-06-25 19:00:00 24.2 3 Sudoeste 5 Sudoeste 0 -- -- 75
2019-06-25 18:00:00 23 3 Sudeste 6 Este 0 -- -- 80
2019-06-25 17:00:00 22.5 3 Sudeste 7 Sur 0 -- -- 82
2019-06-25 16:00:00 21.9 5 Sudoeste 9 Sudoeste 0 -- -- 83
2019-06-25 15:00:00 22.1 8 Sudoeste 9 Sudoeste 0 -- -- 83
2019-06-25 14:00:00 21.4 6 Sudoeste 9 Sudoeste 0 -- -- 84
2019-06-25 13:00:00 21.4 10 Sudoeste 13 Sudoeste 0 -- -- 87
2019-06-25 12:00:00 20.4 13 Sudoeste 20 Sudoeste 0 -- -- 91
2019-06-25 11:00:00 19.9 15 Sudoeste 20 Sudoeste 0 -- -- 92
2019-06-25 10:00:00 19.2 18 Sudoeste 23 Sudoeste 0 -- -- 95
2019-06-25 09:00:00 19 13 Oeste 17 Sudoeste 0 -- -- 96
2019-06-25 08:00:00 18 3 Sudoeste 6 Sudeste 0 -- -- 96
2019-06-25 07:00:00 18.8 3 Nordeste 8 Este 0 -- -- 94
2019-06-25 06:00:00 18.9 4 Norte 10 Nordeste 0 -- -- 94
2019-06-25 05:00:00 18.7 5 Nordeste 11 Nordeste 0 -- -- 95
2019-06-25 04:00:00 18.7 7 Este 9 Este 0 -- -- 94
2019-06-25 03:00:00 19.6 5 Norte 8 Nordeste 0 -- -- 93
2019-06-25 02:00:00 19.2 4 Este 6 Este 0 -- -- 92
2019-06-25 01:00:00 19.4 2 Oeste 5 Oeste 0 -- -- 93
2019-06-25 00:00:00 19.4 0 Calma 5 Este 0 -- -- 93
2019-06-24 23:00:00 19.6 3 Este 10 Nordeste 0 -- -- 93
2019-06-24 22:00:00 20 9 Nordeste 10 Nordeste 0 -- -- 90
2019-06-24 21:00:00 19.9 2 Sudeste 8 Sur 0 -- -- 90
2019-06-24 20:00:00 20.7 4 Sur 6 Sur 0 -- -- 86
2019-06-24 19:00:00 21.5 3 Sur 8 Sudeste 0 -- -- 83
2019-06-24 18:00:00 21.3 5 Sur 8 Sur 0 -- -- 84
2019-06-24 17:00:00 21.4 6 Sur 9 Sur 0 -- -- 82
2019-06-24 16:00:00 21 4 Sur 6 Sur 0 -- -- 85
2019-06-24 15:00:00 21.5 2 Sur 5 Sur 0 -- -- 83
2019-06-24 14:00:00 21.1 4 Sudeste 5 Sudeste 0 -- -- 83
2019-06-24 13:00:00 20.8 3 Sudeste 5 Sur 0 -- -- 84
2019-06-24 12:00:00 20.9 4 Sudoeste 8 Sudoeste 0 -- -- 84
2019-06-24 11:00:00 21.4 5 Sudoeste 9 Sudoeste 0 -- -- 78
2019-06-24 10:00:00 20.6 4 Sudoeste 9 Sudoeste 0 -- -- 78
2019-06-24 09:00:00 19.5 6 Sudoeste 9 Sudoeste 0 -- -- 80
2019-06-24 08:00:00 19.8 3 Noroeste 6 Noroeste 0 -- -- 79
2019-06-24 07:00:00 18.4 0 Calma 12 Norte 0 -- -- 84
2019-06-24 06:00:00 18.8 5 Norte 9 Norte 0 -- -- 82
2019-06-24 05:00:00 18.7 2 Norte 7 Norte 0 -- -- 85
2019-06-24 04:00:00 18.9 2 Oeste 5 Norte 0 -- -- 87
2019-06-24 03:00:00 18.9 2 Noroeste 5 Sudoeste 0 -- -- 89
2019-06-24 02:00:00 19.8 3 Sudoeste 5 Oeste 0 -- -- 83
2019-06-24 01:00:00 20.1 0 Calma 3 Oeste 0 -- -- 83
2019-06-24 00:00:00 20.4 3 Sudoeste 4 Oeste 0 -- -- 82
2019-06-23 23:00:00 21 3 Sudoeste 5 Sudoeste 0 -- -- 78
2019-06-23 22:00:00 21.4 0 Calma 3 Oeste 0 -- -- 78
2019-06-23 21:00:00 21.8 0 Calma 4 Nordeste 0 -- -- 75
2019-06-23 20:00:00 23.3 4 Nordeste 6 Nordeste 0 -- -- 71
2019-06-23 19:00:00 24.4 4 Este 6 Nordeste 0 -- -- 71
2019-06-23 18:00:00 23.3 3 Sudeste 8 Sudoeste 0 -- -- 73
2019-06-23 17:00:00 23.9 2 Sur 4 Sudoeste 0 -- -- 72
2019-06-23 16:00:00 23.2 0 Calma 4 Este 0 -- -- 73
2019-06-23 15:00:00 22.8 4 Este 5 Este 0 -- -- 75
2019-06-23 14:00:00 22.8 4 Este 5 Este 0 -- -- 75
2019-06-23 13:00:00 21.9 2 Este 4 Este 0 -- -- 80
2019-06-23 12:00:00 22 0 Calma 3 Este 0 -- -- 80
2019-06-23 11:00:00 22.6 3 Sudoeste 4 Sudeste 0 -- -- 77
2019-06-23 10:00:00 23.2 0 Calma 6 Sudeste 0 -- -- 76
2019-06-23 09:00:00 23 0 Calma 9 Noroeste 0 -- -- 74
2019-06-23 08:00:00 20.2 3 Norte 7 Norte 0 -- -- 80
2019-06-23 07:00:00 19.3 3 Norte 10 Norte 0 -- -- 80
2019-06-23 06:00:00 18.8 7 Noroeste 10 Noroeste 0 -- -- 87
2019-06-23 05:00:00 18.6 9 Nordeste 11 Nordeste 0 -- -- 88
2019-06-23 04:00:00 19.2 0 Calma 5 Noroeste 0 -- -- 88
2019-06-23 03:00:00 19.5 0 Calma 2 Sudeste 0 -- -- 89
2019-06-23 02:00:00 19.7 2 Sur 3 Sur 0 -- -- 88
2019-06-23 01:00:00 19.8 0 Calma 5 Este 0 -- -- 88
2019-06-23 00:00:00 20 5 Sudeste 6 Sudeste 0 -- -- 87
2019-06-22 23:00:00 20.4 4 Norte 8 Este 0 -- -- 86
2019-06-22 22:00:00 20.7 4 Nordeste 10 Nordeste 0 -- -- 85
2019-06-22 21:00:00 21 9 Nordeste 10 Nordeste 0 -- -- 84
2019-06-22 20:00:00 23 6 Nordeste 8 Nordeste 0 -- -- 77
2019-06-22 19:00:00 22.6 3 Este 5 Este 0 -- -- 78
2019-06-22 18:00:00 22.8 2 Sur 9 Este 0 -- -- 76
2019-06-22 17:00:00 21.9 6 Este 21 Sudeste 0 -- -- 81
2019-06-22 16:00:00 19.3 17 Sudeste 31 Sudeste 0 -- -- 90
2019-06-22 15:00:00 19.4 26 Sudeste 35 Este 0 -- -- 89
2019-06-22 14:00:00 19.9 27 Este 37 Este 0 -- -- 86
2019-06-22 13:00:00 20 31 Este 40 Este 0 -- -- 85
2019-06-22 12:00:00 20.3 28 Este 36 Este 0 -- -- 81
2019-06-22 11:00:00 19.6 24 Este 30 Este 0 -- -- 84
2019-06-22 10:00:00 20.2 20 Este 26 Este 0 -- -- 79
2019-06-22 09:00:00 20.7 13 Este 21 Este 0 -- -- 77
2019-06-22 08:00:00 20.8 11 Nordeste 25 Este 0 -- -- 75
2019-06-22 07:00:00 20.1 9 Nordeste 18 Norte 0 -- -- 73
2019-06-22 06:00:00 19.5 4 Nordeste 10 Nordeste 0 -- -- 71
2019-06-22 05:00:00 18.2 4 Norte 8 Norte 0 -- -- 82
2019-06-22 04:00:00 18.4 0 Calma 8 Oeste 0 -- -- 85
2019-06-22 03:00:00 18.5 3 Sudoeste 14 Oeste 0 -- -- 85
2019-06-22 02:00:00 19.3 5 Sudoeste 11 Este 0 -- -- 80
2019-06-22 01:00:00 18.8 11 Nordeste 14 Nordeste 0 -- -- 86
2019-06-22 00:00:00 19.7 4 Nordeste 11 Nordeste 0 -- -- 81
2019-06-21 23:00:00 21.5 8 Nordeste 11 Nordeste 0 -- -- 70
2019-06-21 22:00:00 21.3 7 Nordeste 10 Nordeste 0 -- -- 70
2019-06-21 21:00:00 22 6 Este 15 Sur 0 -- -- 65
2019-06-21 20:00:00 22.6 9 Sudoeste 27 Sudoeste 0 -- -- 63
2019-06-21 19:00:00 22.6 20 Sudoeste 36 Sudoeste 0 -- -- 62
2019-06-21 18:00:00 23 5 Sur 18 Sudoeste 0 -- -- 62
2019-06-21 17:00:00 22.9 4 Este 9 Este 0 -- -- 65
2019-06-21 16:00:00 21.2 6 Sudeste 14 Sur 0 -- -- 70
2019-06-21 15:00:00 20.9 11 Sudoeste 23 Oeste 0 -- -- 69
2019-06-21 14:00:00 20.6 12 Sudoeste 19 Sudoeste 0 -- -- 74
2019-06-21 13:00:00 20.4 7 Sudeste 12 Sudeste 0 -- -- 73
2019-06-21 12:00:00 20.8 9 Nordeste 14 Este 0 -- -- 76
2019-06-21 11:00:00 20.6 9 Nordeste 11 Nordeste 0 -- -- 76
2019-06-21 10:00:00 21.6 4 Nordeste 10 Nordeste 0 -- -- 73
2019-06-21 09:00:00 20 7 Nordeste 12 Nordeste 0 -- -- 77
2019-06-21 08:00:00 18.7 6 Nordeste 11 Nordeste 0 -- -- 79
2019-06-21 07:00:00 17.2 0 Calma 4 Sudeste 0 -- -- 87
2019-06-21 06:00:00 18.1 0 Calma 8 Nordeste 0 -- -- 82
2019-06-21 05:00:00 17.9 5 Nordeste 8 Nordeste 0 -- -- 83
2019-06-21 04:00:00 18.1 3 Nordeste 11 Nordeste 0 -- -- 85
2019-06-21 03:00:00 18 6 Nordeste 9 Nordeste 0 -- -- 87
2019-06-21 02:00:00 18.2 4 Sudeste 7 Nordeste 0 -- -- 84
2019-06-21 01:00:00 18.6 4 Nordeste 15 Este 0 -- -- 83
2019-06-21 00:00:00 19.7 9 Nordeste 19 Nordeste 0 -- -- 77
2019-06-20 23:00:00 21.3 15 Nordeste 21 Sudoeste 0 -- -- 67
2019-06-20 22:00:00 20.6 10 Sudoeste 36 Sudoeste 0 -- -- 71
2019-06-20 21:00:00 20.5 31 Sudoeste 39 Sudoeste 0 -- -- 73
2019-06-20 20:00:00 21.3 33 Sudoeste 43 Sudoeste 0 -- -- 70
2019-06-20 19:00:00 22.2 38 Sudoeste 45 Sudoeste 0 -- -- 65
2019-06-20 18:00:00 22.2 40 Sudoeste 49 Sudoeste 0 -- -- 66
2019-06-20 17:00:00 22.1 40 Sudoeste 52 Sudoeste 0 -- -- 65
2019-06-20 16:00:00 22.3 41 Sudoeste 50 Sudoeste 0 -- -- 65
2019-06-20 15:00:00 22.2 42 Sudoeste 50 Sudoeste 0 -- -- 66
2019-06-20 14:00:00 22.2 38 Sudoeste 48 Sudoeste 0 -- -- 65
2019-06-20 13:00:00 22.1 31 Sudoeste 40 Sudoeste 0 -- -- 65
2019-06-20 12:00:00 21.5 26 Sudoeste 35 Sudoeste 0 -- -- 69
2019-06-20 11:00:00 22.2 3 Nordeste 12 Sudeste 0 -- -- 70
2019-06-20 10:00:00 19.9 9 Sudeste 17 Nordeste 0 -- -- 81
2019-06-20 09:00:00 19.4 14 Nordeste 18 Nordeste 0 -- -- 82
2019-06-20 08:00:00 19.2 12 Nordeste 19 Nordeste 0 -- -- 81
2019-06-20 07:00:00 18.4 10 Nordeste 14 Nordeste 0 -- -- 86
2019-06-20 06:00:00 18.9 7 Oeste 10 Oeste 0 -- -- 79
2019-06-20 05:00:00 18 6 Oeste 9 Oeste 0 -- -- 85
2019-06-20 04:00:00 18.6 0 Calma 6 Este 0 -- -- 86
2019-06-20 03:00:00 19.2 6 Nordeste 11 Nordeste 0 -- -- 85
2019-06-20 02:00:00 19.8 8 Nordeste 10 Nordeste 0 -- -- 80
2019-06-20 01:00:00 20 7 Nordeste 9 Nordeste 0 -- -- 82
2019-06-20 00:00:00 20.4 3 Nordeste 11 Nordeste 0 -- -- 80
2019-06-19 23:00:00 21.1 7 Nordeste 10 Nordeste 0 -- -- 77
2019-06-19 22:00:00 22.3 7 Nordeste 15 Nordeste 0 -- -- 70
2019-06-19 21:00:00 22.5 8 Nordeste 27 Sudoeste 0 -- -- 72
2019-06-19 20:00:00 23.7 21 Sudoeste 29 Sudoeste 0 -- -- 66
2019-06-19 19:00:00 24.6 3 Norte 26 Oeste 0 -- -- 64
2019-06-19 18:00:00 22.8 13 Oeste 27 Sudoeste 0 -- -- 69
2019-06-19 17:00:00 22.7 13 Oeste 25 Oeste 0 -- -- 70
2019-06-19 16:00:00 22.7 11 Oeste 27 Sudoeste 0 -- -- 68
2019-06-19 15:00:00 23.6 7 Nordeste 13 Nordeste 0 -- -- 71
2019-06-19 14:00:00 22.6 10 Este 12 Este 0 -- -- 72
2019-06-19 13:00:00 22 5 Este 10 Sudeste 0 -- -- 74
2019-06-19 12:00:00 22.3 5 Este 9 Nordeste 0 -- -- 71
2019-06-19 11:00:00 20.7 4 Sudeste 8 Este 0 -- -- 78
2019-06-19 10:00:00 19.2 7 Sudoeste 15 Sudoeste 0 -- -- 84
2019-06-19 09:00:00 20.6 5 Nordeste 11 Nordeste 0 -- -- 70
2019-06-19 08:00:00 18.4 4 Nordeste 7 Sudoeste 0 -- -- 82
2019-06-19 07:00:00 17.3 3 Norte 5 Noroeste 0 -- -- 83
2019-06-19 06:00:00 17.5 4 Norte 9 Nordeste 0 -- -- 83
2019-06-19 05:00:00 17.2 6 Nordeste 8 Norte 0 -- -- 87
2019-06-19 04:00:00 18 2 Sudeste 6 Sudoeste 0 -- -- 89
2019-06-19 03:00:00 18.3 6 Este 10 Este 0 -- -- 87
2019-06-19 02:00:00 18.9 2 Sudoeste 9 Nordeste 0 -- -- 82
2019-06-19 01:00:00 19.3 0 Calma 4 Noroeste 0 -- -- 81
2019-06-19 00:00:00 19.9 10 Oeste 22 Sudoeste 0 -- -- 80
2019-06-18 23:00:00 20.2 0 Calma 9 Nordeste 0 -- -- 77
2019-06-18 22:00:00 20.6 6 Nordeste 13 Nordeste 0 -- -- 74
2019-06-18 21:00:00 20.2 9 Nordeste 14 Nordeste 0 -- -- 77
2019-06-18 20:00:00 21.3 9 Este 18 Sudoeste 0 -- -- 69
2019-06-18 19:00:00 21.7 10 Sudoeste 19 Sudoeste 0 -- -- 66
2019-06-18 18:00:00 22.9 6 Sudoeste 15 Sudoeste 0 -- -- 57
2019-06-18 17:00:00 22 7 Este 11 Este 0 -- -- 68
2019-06-18 16:00:00 20.6 4 Este 19 Sur 0 -- -- 71
2019-06-18 15:00:00 20.4 6 Sur 25 Sur 0 -- -- 73
2019-06-18 14:00:00 19.8 18 Sudoeste 22 Sudoeste 0 -- -- 76
2019-06-18 13:00:00 21.2 7 Sudoeste 10 Sudoeste 0 -- -- 76
2019-06-18 12:00:00 19.6 5 Sudoeste 8 Sudoeste 0 -- -- 76
2019-06-18 11:00:00 18.8 3 Sur 9 Sur 0 -- -- 82
2019-06-18 10:00:00 18.6 6 Sur 8 Sur 0 -- -- 75
2019-06-18 09:00:00 19.8 0 Calma 4 Norte 0 -- -- 71
2019-06-18 08:00:00 17.9 3 Norte 8 Norte 0 -- -- 69
2019-06-18 07:00:00 16.2 4 Noroeste 7 Noroeste 0 -- -- 73
2019-06-18 06:00:00 17.6 0 Calma 5 Noroeste 0 -- -- 76
2019-06-18 05:00:00 16.9 2 Norte 3 Norte 0 -- -- 76
2019-06-18 04:00:00 17.3 0 Calma 4 Oeste 0 -- -- 78
2019-06-18 03:00:00 17.6 2 Sur 5 Noroeste 0 -- -- 80
2019-06-18 02:00:00 16.9 4 Norte 9 Noroeste 0 -- -- 86
2019-06-18 01:00:00 18 0 Calma 4 Sudeste 0 -- -- 91
2019-06-18 00:00:00 18.1 2 Oeste 5 Sur 0 -- -- 91
2019-06-17 23:00:00 18.5 5 Oeste 6 Sudoeste 0 -- -- 90
2019-06-17 22:00:00 18.7 0 Calma 6 Oeste 0 -- -- 88
2019-06-17 21:00:00 19.3 4 Sudoeste 8 Sudoeste 0 -- -- 87
2019-06-17 20:00:00 20.6 7 Sudoeste 9 Sudoeste 0 -- -- 82
2019-06-17 19:00:00 21.4 8 Sudoeste 9 Sudoeste 0 -- -- 80
2019-06-17 18:00:00 20.6 5 Sudoeste 7 Sur 0 -- -- 81
2019-06-17 17:00:00 20.1 5 Sur 8 Sur 0 -- -- 82
2019-06-17 16:00:00 19.9 5 Sur 6 Sur 0 -- -- 81
2019-06-17 15:00:00 19.7 6 Sur 8 Sur 0 -- -- 81
2019-06-17 14:00:00 19.6 5 Sur 8 Sur 0 -- -- 78
2019-06-17 13:00:00 19.4 5 Sur 7 Sur 0 -- -- 73
2019-06-17 12:00:00 19.5 3 Sudeste 5 Sudeste 0 -- -- 69
2019-06-17 11:00:00 20 0 Calma 4 Sudoeste 0 -- -- 65
2019-06-17 10:00:00 19.3 3 Sudoeste 7 Sur 0 -- -- 70
2019-06-17 09:00:00 20.2 0 Calma 8 Norte 0 -- -- 61
2019-06-17 08:00:00 17.7 8 Noroeste 13 Norte 0 -- -- 56
2019-06-17 07:00:00 16.7 7 Noroeste 13 Noroeste 0 -- -- 57
2019-06-17 06:00:00 16.9 9 Noroeste 13 Noroeste 0 -- -- 58
2019-06-17 05:00:00 17.2 8 Noroeste 14 Norte 0 -- -- 57
2019-06-17 04:00:00 17.7 9 Norte 14 Norte 0 -- -- 59
2019-06-17 03:00:00 17.9 8 Norte 14 Norte 0 -- -- 61
2019-06-17 02:00:00 18.4 10 Norte 15 Noroeste 0 -- -- 61
2019-06-17 01:00:00 18.2 3 Noroeste 7 Norte 0 -- -- 65
2019-06-17 00:00:00 19 0 Calma 9 Norte 0 -- -- 67
2019-06-16 23:00:00 19.6 4 Nordeste 9 Nordeste 0 -- -- 64
2019-06-16 22:00:00 19.8 7 Nordeste 20 Este 0 -- -- 67
2019-06-16 21:00:00 19.3 16 Este 23 Este 0 -- -- 70
2019-06-16 20:00:00 20.1 19 Este 26 Este 0 -- -- 67
2019-06-16 19:00:00 20 18 Este 28 Sudeste 0 -- -- 68
2019-06-16 18:00:00 20 25 Este 30 Sudeste 0 -- -- 64
2019-06-16 17:00:00 20.4 24 Este 30 Este 0 -- -- 58
2019-06-16 16:00:00 20.5 23 Este 31 Este 0 -- -- 59
2019-06-16 15:00:00 21.6 9 Sudeste 18 Este 0 -- -- 57
2019-06-16 14:00:00 19.7 4 Sudeste 8 Este 0 -- -- 75
2019-06-16 13:00:00 20.2 5 Este 10 Nordeste 0 -- -- 73
2019-06-16 12:00:00 20.1 0 Calma 5 Nordeste 0 -- -- 73
2019-06-16 11:00:00 20 4 Nordeste 10 Este 0 -- -- 75
2019-06-16 10:00:00 20.3 8 Nordeste 12 Nordeste 0 -- -- 71
2019-06-16 09:00:00 19.4 4 Norte 9 Nordeste 0 -- -- 73
2019-06-16 08:00:00 17.6 5 Norte 8 Norte 0 -- -- 78
2019-06-16 07:00:00 16.3 6 Noroeste 10 Noroeste 0 -- -- 82
2019-06-16 06:00:00 16.4 4 Nordeste 9 Sudoeste 0 -- -- 89
2019-06-16 05:00:00 16.6 5 Sudoeste 8 Oeste 0 -- -- 88
2019-06-16 04:00:00 16.9 5 Oeste 8 Oeste 0 -- -- 87
2019-06-16 03:00:00 17.2 5 Nordeste 8 Nordeste 0 -- -- 85
2019-06-16 02:00:00 17.9 6 Nordeste 10 Norte 0 -- -- 82
2019-06-16 01:00:00 18.1 8 Norte 13 Nordeste 0 -- -- 83
2019-06-16 00:00:00 18 7 Norte 11 Nordeste 0 -- -- 84
2019-06-15 23:00:00 18 7 Nordeste 12 Nordeste 0 -- -- 86
2019-06-15 22:00:00 18.2 5 Nordeste 8 Este 0 -- -- 84
2019-06-15 21:00:00 18.5 7 Este 12 Este 0 -- -- 84
2019-06-15 20:00:00 19.7 10 Este 13 Este 0 -- -- 79
2019-06-15 19:00:00 19.8 7 Sudeste 9 Sudeste 0 -- -- 79
2019-06-15 18:00:00 20.3 4 Este 8 Sur 0 -- -- 74
2019-06-15 17:00:00 19.7 5 Sur 8 Sur 0 -- -- 76
2019-06-15 16:00:00 20.1 5 Sudoeste 10 Sudoeste 0 -- -- 74
2019-06-15 15:00:00 19.9 13 Oeste 18 Sudoeste 0 -- -- 77
2019-06-15 14:00:00 20 12 Sudoeste 18 Sudoeste 0 -- -- 75
2019-06-15 13:00:00 19 16 Sudoeste 19 Sudoeste 0 -- -- 77
2019-06-15 12:00:00 18.7 8 Sudoeste 15 Sudoeste 0 -- -- 77
2019-06-15 11:00:00 18.6 11 Oeste 13 Sudoeste 0 -- -- 76
2019-06-15 10:00:00 17.1 9 Sudoeste 13 Sudoeste 0 -- -- 80
2019-06-15 09:00:00 18.4 6 Oeste 9 Oeste 0 -- -- 69
2019-06-15 08:00:00 16.9 3 Oeste 13 Norte 0 -- -- 68
2019-06-15 07:00:00 16.4 8 Norte 12 Norte 0 -- -- 59
2019-06-15 06:00:00 16 3 Norte 4 Norte 0 -- -- 71
2019-06-15 05:00:00 16.2 0 Calma 8 Nordeste 0 -- -- 70
2019-06-15 04:00:00 16.4 0 Calma 5 Noroeste 0 -- -- 74
2019-06-15 03:00:00 16.5 0 Calma 5 Oeste 0 -- -- 73
2019-06-15 02:00:00 17.3 3 Nordeste 11 Norte 0 -- -- 69
2019-06-15 01:00:00 17.4 8 Nordeste 10 Nordeste 0 -- -- 69
2019-06-15 00:00:00 17.7 7 Este 12 Este 0 -- -- 71
2019-06-14 23:00:00 18.2 8 Oeste 25 Sudoeste 0 -- -- 72
2019-06-14 22:00:00 19.1 12 Oeste 39 Sudoeste 0 -- -- 62
2019-06-14 21:00:00 19 34 Sudoeste 49 Sudoeste 0 -- -- 67
2019-06-14 20:00:00 19.4 40 Sudoeste 49 Sudoeste 0 -- -- 65
2019-06-14 19:00:00 19.2 39 Sudoeste 49 Sudoeste 0 -- -- 64
2019-06-14 18:00:00 19.3 41 Sudoeste 57 Sudoeste 0 -- -- 64
2019-06-14 17:00:00 19.5 45 Sudoeste 55 Sudoeste 0 -- -- 60
2019-06-14 16:00:00 19.6 46 Sudoeste 58 Sudoeste 0 -- -- 59
2019-06-14 15:00:00 19.3 45 Sudoeste 59 Sudoeste 0 -- -- 60
2019-06-14 14:00:00 18.8 46 Sudoeste 60 Sudoeste 0 -- -- 70
2019-06-14 13:00:00 18.9 43 Sudoeste 53 Sudoeste 0 -- -- 66
2019-06-14 12:00:00 18.7 34 Sudoeste 43 Sudoeste 0 -- -- 68
2019-06-14 11:00:00 17.8 27 Sudoeste 39 Sudoeste 0 -- -- 76
2019-06-14 10:00:00 17.6 32 Sudoeste 40 Sudoeste 0 -- -- 75
2019-06-14 09:00:00 18 25 Sudoeste 46 Sudoeste 0 -- -- 73
2019-06-14 08:00:00 18.2 28 Oeste 46 Oeste 0 -- -- 69
2019-06-14 07:00:00 17.2 31 Oeste 45 Sudoeste 0 -- -- 75
2019-06-14 06:00:00 17.7 32 Sudoeste 49 Oeste 0 -- -- 79
2019-06-14 05:00:00 18.5 33 Sudoeste 48 Oeste 0 -- -- 77
2019-06-14 04:00:00 17.9 18 Sudoeste 22 Oeste 0 -- -- 87
2019-06-14 03:00:00 18.5 4 Sudoeste 6 Oeste 0 -- -- 90
2019-06-14 02:00:00 18.7 4 Oeste 12 Sudoeste 0 -- -- 90
2019-06-14 01:00:00 19.2 10 Sudoeste 15 Sudoeste 0 -- -- 88
2019-06-14 00:00:00 19.6 7 Sudoeste 14 Sudoeste 0 -- -- 86
2019-06-13 23:00:00 20.1 7 Sudoeste 11 Sudoeste 0 -- -- 82
2019-06-13 22:00:00 19.7 0 Calma 6 Sur 0 -- -- 83
2019-06-13 21:00:00 20.5 5 Sudoeste 10 Oeste 0 -- -- 79
2019-06-13 20:00:00 21.3 7 Sudoeste 8 Oeste 0 -- -- 78
2019-06-13 19:00:00 22.4 5 Sudoeste 8 Sudoeste 0 -- -- 75
2019-06-13 18:00:00 22.8 4 Sudoeste 8 Sudeste 0 -- -- 72
2019-06-13 17:00:00 21.4 8 Sudeste 15 Sudeste 0 -- -- 79
2019-06-13 16:00:00 21.6 7 Sudeste 10 Sudeste 0 -- -- 75
2019-06-13 15:00:00 21.9 5 Este 8 Este 0 -- -- 71
2019-06-13 14:00:00 23.7 5 Nordeste 8 Nordeste 0 -- -- 66
2019-06-13 13:00:00 22.6 7 Nordeste 13 Este 0 -- -- 71
2019-06-13 12:00:00 22.1 9 Este 15 Este 0 -- -- 74
2019-06-13 11:00:00 21.6 7 Nordeste 10 Nordeste 0 -- -- 74
2019-06-13 10:00:00 21 4 Este 10 Este 0 -- -- 75
2019-06-13 09:00:00 20 6 Nordeste 10 Norte 0 -- -- 76
2019-06-13 08:00:00 18.9 4 Norte 14 Nordeste 0 -- -- 75
2019-06-13 07:00:00 18.8 5 Nordeste 14 Norte 0 -- -- 76
2019-06-13 06:00:00 18 9 Norte 14 Norte 0 -- -- 73
2019-06-13 05:00:00 18.1 9 Norte 15 Norte 0 -- -- 75
2019-06-13 04:00:00 18.2 5 Nordeste 16 Este 0 -- -- 82
2019-06-13 03:00:00 18.3 14 Este 19 Este 0 -- -- 83
2019-06-13 02:00:00 17.8 8 Nordeste 11 Este 0 -- -- 84
2019-06-13 01:00:00 18.6 7 Nordeste 16 Nordeste 0 -- -- 79
2019-06-13 00:00:00 18.2 13 Nordeste 18 Nordeste 0 -- -- 84
2019-06-12 23:00:00 17.9 15 Nordeste 18 Este 0 -- -- 87
2019-06-12 22:00:00 18.2 13 Este 17 Este 0 -- -- 86
2019-06-12 21:00:00 18.6 8 Este 15 Este 0 -- -- 84
2019-06-12 20:00:00 19.8 11 Este 22 Este 0 -- -- 80
2019-06-12 19:00:00 19.2 17 Este 26 Este 0 -- -- 80
2019-06-12 18:00:00 19.6 21 Este 26 Este 0 -- -- 78
2019-06-12 17:00:00 19.8 17 Este 26 Este 0 -- -- 75
2019-06-12 16:00:00 19.1 21 Este 35 Este 0 -- -- 75
2019-06-12 15:00:00 19.3 30 Este 38 Este 0 -- -- 72
2019-06-12 14:00:00 19.4 28 Este 35 Este 0 -- -- 72
2019-06-12 13:00:00 19.6 24 Este 32 Este 0 -- -- 72
2019-06-12 12:00:00 19.6 23 Este 39 Nordeste 0 -- -- 71
2019-06-12 11:00:00 19.1 27 Nordeste 39 Este 0 -- -- 74
2019-06-12 10:00:00 19.3 30 Este 39 Nordeste 0 -- -- 75
2019-06-12 09:00:00 18.8 28 Nordeste 39 Este 0 -- -- 77
2019-06-12 08:00:00 18.9 31 Nordeste 45 Nordeste 0 -- -- 78
2019-06-12 07:00:00 18.9 32 Nordeste 44 Este 0 -- -- 80
2019-06-12 06:00:00 18.9 34 Nordeste 49 Nordeste 0 -- -- 82
2019-06-12 05:00:00 19.2 37 Nordeste 52 Nordeste 0 -- -- 82
2019-06-12 04:00:00 19.3 42 Nordeste 57 Este 0 -- -- 81
2019-06-12 03:00:00 17.1 12 Nordeste 37 Nordeste 0 -- -- 85
2019-06-12 02:00:00 17.8 3 Este 9 Sudeste 0 -- -- 82
2019-06-12 01:00:00 18.5 0 Calma 12 Este 0 -- -- 78
2019-06-12 00:00:00 19.4 3 Este 12 Sudoeste 0 -- -- 73
2019-06-11 23:00:00 19.6 3 Nordeste 9 Este 0 -- -- 73
2019-06-11 22:00:00 20.5 6 Nordeste 20 Sudoeste 0 -- -- 69
2019-06-11 21:00:00 22.2 9 Oeste 42 Oeste 0 -- -- 64
2019-06-11 20:00:00 22.6 32 Oeste 49 Sudoeste 0 -- -- 61
2019-06-11 19:00:00 21.1 40 Sudoeste 62 Sudoeste 0 -- -- 64
2019-06-11 18:00:00 21.7 45 Sudoeste 64 Sudoeste 0 -- -- 64
2019-06-11 17:00:00 20.5 46 Sudoeste 58 Sudoeste 0 -- -- 67
2019-06-11 16:00:00 19.1 35 Sudoeste 54 Sudoeste 0 -- -- 74
2019-06-11 15:00:00 19.1 36 Sudoeste 58 Sudoeste 0 -- -- 73
2019-06-11 14:00:00 20.4 48 Sudoeste 57 Sudoeste 0 -- -- 65
2019-06-11 13:00:00 19.8 40 Sudoeste 53 Sudoeste 0 -- -- 66
2019-06-11 12:00:00 19.5 43 Sudoeste 53 Sudoeste 0 -- -- 63
2019-06-11 11:00:00 18.4 36 Sudoeste 58 Sudoeste 0 -- -- 65
2019-06-11 10:00:00 18.9 32 Oeste 41 Sudoeste 0 -- -- 72
2019-06-11 09:00:00 19.4 3 Sudeste 12 Sudoeste 0 -- -- 69
2019-06-11 08:00:00 18.1 4 Nordeste 7 Nordeste 0 -- -- 73
2019-06-11 07:00:00 16.9 4 Nordeste 8 Norte 0 -- -- 76
2019-06-11 06:00:00 16.9 3 Nordeste 8 Nordeste 0 -- -- 76
2019-06-11 05:00:00 17.2 4 Nordeste 9 Nordeste 0 -- -- 77
2019-06-11 04:00:00 17.3 4 Nordeste 9 Nordeste 0 -- -- 79
2019-06-11 03:00:00 17.4 3 Nordeste 8 Este 0 -- -- 82
2019-06-11 02:00:00 17.8 5 Este 7 Este 0 -- -- 82
2019-06-11 01:00:00 18.5 4 Norte 6 Nordeste 0 -- -- 77
2019-06-11 00:00:00 19 4 Nordeste 14 Sudoeste 0 -- -- 74
2019-06-10 23:00:00 19 9 Oeste 19 Sudoeste 0 -- -- 74
2019-06-10 22:00:00 19.8 15 Sudoeste 26 Sudoeste 0 -- -- 71
2019-06-10 21:00:00 23.4 11 Oeste 42 Oeste 0 -- -- 50
2019-06-10 20:00:00 23.4 28 Oeste 53 Sudoeste 0 -- -- 55
2019-06-10 19:00:00 21.8 39 Sudoeste 55 Sudoeste 0 -- -- 61
2019-06-10 18:00:00 21 35 Sudoeste 67 Sudoeste 0 -- -- 66
2019-06-10 17:00:00 20 44 Sudoeste 65 Sudoeste 0 -- -- 71
2019-06-10 16:00:00 19.9 35 Sudoeste 57 Sudoeste 0 -- -- 72
2019-06-10 15:00:00 19.3 39 Sudoeste 51 Sudoeste 0 -- -- 75
2019-06-10 14:00:00 18.9 34 Sudoeste 45 Sudoeste 0 -- -- 77
2019-06-10 13:00:00 20.4 32 Sudoeste 45 Sudoeste 0 -- -- 66
2019-06-10 12:00:00 19.9 28 Sudoeste 40 Sudoeste 0 -- -- 72
2019-06-10 11:00:00 19.4 27 Sudoeste 36 Sudoeste 0 -- -- 73
2019-06-10 10:00:00 19.1 16 Sudoeste 24 Sudoeste 0 -- -- 76
2019-06-10 09:00:00 20.1 3 Sur 5 Nordeste 0 -- -- 64
2019-06-10 08:00:00 18.9 0 Calma 7 Este 0 -- -- 63
2019-06-10 07:00:00 17.5 2 Norte 8 Oeste 0 -- -- 70
2019-06-10 06:00:00 17.2 0 Calma 5 Oeste 0 -- -- 72
2019-06-10 05:00:00 17.9 2 Norte 9 Nordeste 0 -- -- 62
2019-06-10 04:00:00 18.1 2 Nordeste 10 Nordeste 0 -- -- 75
2019-06-10 03:00:00 18.6 5 Nordeste 24 Oeste 0 -- -- 63
2019-06-10 02:00:00 20.3 19 Oeste 27 Oeste 0 -- -- 59
2019-06-10 01:00:00 20.5 4 Noroeste 19 Oeste 0 -- -- 58
2019-06-10 00:00:00 20.3 15 Oeste 36 Oeste 0 -- -- 56
2019-06-09 23:00:00 19.4 20 Oeste 44 Sudoeste 0 -- -- 72
2019-06-09 22:00:00 20.2 30 Sudoeste 43 Sudoeste 0 -- -- 65
2019-06-09 21:00:00 21.1 32 Sudoeste 45 Sudoeste 0 -- -- 62
2019-06-09 20:00:00 21.7 41 Sudoeste 49 Sudoeste 0 -- -- 58
2019-06-09 19:00:00 22.3 40 Sudoeste 50 Sudoeste 0 -- -- 58
2019-06-09 18:00:00 21.7 39 Sudoeste 52 Sudoeste 0 -- -- 65
2019-06-09 17:00:00 21.8 38 Sudoeste 45 Sudoeste 0 -- -- 66
2019-06-09 16:00:00 21.7 35 Sudoeste 42 Sudoeste 0 -- -- 66
2019-06-09 15:00:00 20.7 27 Sudoeste 34 Sudoeste 0 -- -- 73
2019-06-09 14:00:00 21.6 8 Este 13 Sudeste 0 -- -- 72
2019-06-09 13:00:00 20.9 4 Sudoeste 22 Sudoeste 0 -- -- 78
2019-06-09 12:00:00 19.8 11 Sudoeste 19 Sudoeste 0 -- -- 87
2019-06-09 11:00:00 19.3 15 Sudoeste 17 Sudoeste 0 -- -- 86
2019-06-09 10:00:00 19.3 6 Sudoeste 9 Sudoeste 0 -- -- 84
2019-06-09 09:00:00 19.3 0 Calma 10 Noroeste 0 -- -- 80
2019-06-09 08:00:00 19 6 Noroeste 11 Noroeste 0 -- -- 77
2019-06-09 07:00:00 18.6 7 Noroeste 10 Norte 0 -- -- 79
2019-06-09 06:00:00 19 4 Norte 11 Nordeste 0 -- -- 80
2019-06-09 05:00:00 18.7 8 Nordeste 13 Este 0 -- -- 89
2019-06-09 04:00:00 18.4 6 Nordeste 14 Sudeste 0 -- -- 88
2019-06-09 03:00:00 19.3 5 Nordeste 12 Nordeste 0 -- -- 83
2019-06-09 02:00:00 19.7 11 Este 17 Este 0 -- -- 83
2019-06-09 01:00:00 19.5 12 Nordeste 17 Nordeste 0 -- -- 85
2019-06-09 00:00:00 19.3 12 Este 19 Este 0 -- -- 86
2019-06-08 23:00:00 19.2 14 Este 22 Sudeste 0 -- -- 86
2019-06-08 22:00:00 19.1 15 Este 20 Sudeste 0 -- -- 86
2019-06-08 21:00:00 19.1 14 Sudeste 23 Sudeste 0 -- -- 86
2019-06-08 20:00:00 20 19 Sudeste 28 Sudeste 0 -- -- 83
2019-06-08 19:00:00 20.7 26 Este 31 Este 0 -- -- 78
2019-06-08 18:00:00 20.1 26 Este 38 Este 0 -- -- 82
2019-06-08 17:00:00 20.4 32 Este 39 Este 0 -- -- 77
2019-06-08 16:00:00 20.3 28 Este 35 Este 0 -- -- 75
2019-06-08 15:00:00 19.4 23 Sudeste 33 Sudeste 0 -- -- 83
2019-06-08 14:00:00 20 26 Este 34 Este 0 -- -- 75
2019-06-08 13:00:00 20.7 30 Este 42 Este 0 -- -- 70
2019-06-08 12:00:00 20 35 Este 41 Este 0 -- -- 72
2019-06-08 11:00:00 20.5 9 Sudoeste 10 Sudoeste 0 -- -- 74
2019-06-08 10:00:00 19.5 7 Sur 9 Sur 0 -- -- 75
2019-06-08 09:00:00 20.8 6 Oeste 8 Noroeste 0 -- -- 68
2019-06-08 08:00:00 19.1 5 Oeste 10 Oeste 0 -- -- 71
2019-06-08 07:00:00 17.2 6 Oeste 10 Norte 0 -- -- 75
2019-06-08 06:00:00 17.8 6 Nordeste 25 Nordeste 0 -- -- 80
2019-06-08 05:00:00 17.1 4 Nordeste 7 Este 0 -- -- 80
2019-06-08 04:00:00 18 3 Oeste 4 Oeste 0 -- -- 83
2019-06-08 03:00:00 17.5 3 Nordeste 6 Este 0 -- -- 81
2019-06-08 02:00:00 18.4 0 Calma 7 Nordeste 0 -- -- 77
2019-06-08 01:00:00 18.6 3 Nordeste 10 Sudoeste 0 -- -- 82
2019-06-08 00:00:00 18.6 4 Sudoeste 8 Sudoeste 0 -- -- 81
2019-06-07 23:00:00 19.8 4 Nordeste 14 Norte 0 -- -- 71
2019-06-07 22:00:00 20.3 4 Nordeste 9 Nordeste 0 -- -- 69
2019-06-07 21:00:00 19.5 8 Nordeste 13 Este 0 -- -- 75
2019-06-07 20:00:00 19.8 13 Sudeste 17 Este 0 -- -- 74
2019-06-07 19:00:00 22 8 Este 16 Este 0 -- -- 65
2019-06-07 18:00:00 21.8 9 Este 14 Sudeste 0 -- -- 68
2019-06-07 17:00:00 20.1 12 Sudeste 17 Sur 0 -- -- 71
2019-06-07 16:00:00 21.6 3 Este 32 Norte 0 -- -- 66
2019-06-07 15:00:00 20.3 10 Nordeste 20 Nordeste 0 -- -- 74
2019-06-07 14:00:00 21.2 10 Este 20 Sudoeste 0 -- -- 66
2019-06-07 13:00:00 20 15 Sudoeste 27 Sudoeste 0 -- -- 73
2019-06-07 12:00:00 22.7 9 Nordeste 40 Oeste 0 -- -- 64
2019-06-07 11:00:00 18.7 25 Sudoeste 37 Sudoeste 0 -- -- 83
2019-06-07 10:00:00 18.2 33 Sudoeste 45 Sudoeste 0 -- -- 85
2019-06-07 09:00:00 20.2 10 Noroeste 25 Oeste 0 -- -- 69
2019-06-07 08:00:00 19.2 0 Calma 15 Sudoeste 0 -- -- 59
2019-06-07 07:00:00 16.9 5 Norte 11 Nordeste 0 -- -- 57
2019-06-07 06:00:00 17.3 6 Norte 14 Norte 0 -- -- 55
2019-06-07 05:00:00 17.4 6 Norte 13 Nordeste 0 -- -- 55
2019-06-07 04:00:00 17.2 8 Norte 13 Oeste 0 -- -- 53
2019-06-07 03:00:00 17.4 0 Calma 5 Norte 0 -- -- 56
2019-06-07 02:00:00 18 4 Norte 8 Oeste 0 -- -- 51
2019-06-07 01:00:00 18.4 7 Oeste 24 Oeste 0 -- -- 52
2019-06-07 00:00:00 18.2 21 Sudoeste 37 Sudoeste 0 -- -- 75
2019-06-06 23:00:00 19.5 21 Sudoeste 30 Sudoeste 0 -- -- 62
2019-06-06 22:00:00 19.4 32 Sudoeste 41 Sudoeste 0 -- -- 61
2019-06-06 21:00:00 21.5 29 Sudoeste 48 Oeste 0 -- -- 48
2019-06-06 20:00:00 21.2 43 Sudoeste 51 Sudoeste 0 -- -- 56
2019-06-06 19:00:00 23.5 14 Oeste 31 Sudoeste 0 -- -- 46
2019-06-06 18:00:00 21.8 8 Sudeste 13 Este 0 -- -- 58
2019-06-06 17:00:00 20.6 5 Sur 18 Sudoeste 0 -- -- 63
2019-06-06 16:00:00 21.6 3 Sudoeste 20 Sudoeste 0 -- -- 59
2019-06-06 15:00:00 21.9 4 Oeste 17 Oeste 0 -- -- 57
2019-06-06 14:00:00 19.9 10 Sudoeste 18 Sudoeste 0 -- -- 64
2019-06-06 13:00:00 19 13 Sudoeste 18 Sudoeste 0 -- -- 74
2019-06-06 12:00:00 19.9 8 Sudoeste 10 Sudoeste 0 -- -- 63
2019-06-06 11:00:00 20.2 3 Sudoeste 7 Sudoeste 0 -- -- 65
2019-06-06 10:00:00 18.7 5 Sur 9 Sudeste 0 -- -- 75
2019-06-06 09:00:00 20.5 2 Nordeste 8 Nordeste 0 -- -- 60
2019-06-06 08:00:00 18.3 4 Nordeste 6 Norte 0 -- -- 71
2019-06-06 07:00:00 16.9 0 Calma 4 Oeste 0 -- -- 72
2019-06-06 06:00:00 16.9 0 Calma 10 Sudoeste 0 -- -- 77
2019-06-06 05:00:00 17.7 9 Sudoeste 13 Sudoeste 0 -- -- 77
2019-06-06 04:00:00 18.3 4 Nordeste 10 Norte 0 -- -- 73
2019-06-06 03:00:00 19.8 2 Oeste 9 Noroeste 0 -- -- 47
2019-06-06 02:00:00 20.9 4 Noroeste 15 Oeste 0 -- -- 42
2019-06-06 01:00:00 21.1 9 Oeste 16 Oeste 0 -- -- 41
2019-06-06 00:00:00 22 8 Oeste 20 Noroeste 0 -- -- 40
2019-06-05 23:00:00 21.9 9 Oeste 24 Sudoeste 0 -- -- 45
2019-06-05 22:00:00 22.8 9 Oeste 19 Noroeste 0 -- -- 51
2019-06-05 21:00:00 25.2 11 Noroeste 26 Noroeste 0 -- -- 27
2019-06-05 20:00:00 25.7 18 Noroeste 32 Noroeste 0 -- -- 27
2019-06-05 19:00:00 27.1 14 Noroeste 27 Norte 0 -- -- 27
2019-06-05 18:00:00 27.4 14 Noroeste 27 Norte 0 -- -- 25
2019-06-05 17:00:00 27 14 Noroeste 32 Oeste 0 -- -- 27
2019-06-05 16:00:00 22.8 13 Sudeste 18 Este 0 -- -- 44
2019-06-05 15:00:00 20.7 11 Sudeste 21 Sudeste 0 -- -- 61
2019-06-05 14:00:00 20.4 12 Sudeste 20 Sur 0 -- -- 60
2019-06-05 13:00:00 19.9 12 Sur 15 Sur 0 -- -- 58
2019-06-05 12:00:00 20.3 7 Sur 10 Sur 0 -- -- 56
2019-06-05 11:00:00 20 9 Sudeste 14 Sudeste 0 -- -- 54
2019-06-05 10:00:00 20.6 9 Sudeste 15 Oeste 0 -- -- 41
2019-06-05 09:00:00 20.9 12 Oeste 27 Oeste 0 -- -- 37
2019-06-05 08:00:00 20.3 11 Noroeste 26 Norte 0 -- -- 46
2019-06-05 07:00:00 20.3 10 Oeste 24 Oeste 0 -- -- 52
2019-06-05 06:00:00 19.7 15 Oeste 27 Sudoeste 0 -- -- 66
2019-06-05 05:00:00 19 24 Sudoeste 32 Sudoeste 0 -- -- 84
2019-06-05 04:00:00 19.4 16 Oeste 34 Sudoeste 0 -- -- 83
2019-06-05 03:00:00 19.1 31 Sudoeste 42 Sudoeste 0 -- -- 88
2019-06-05 02:00:00 20.2 28 Sudoeste 36 Sudoeste 0 -- -- 80
2019-06-05 01:00:00 19.9 27 Sudoeste 43 Sudoeste 0 -- -- 82
2019-06-05 00:00:00 22.4 28 Oeste 38 Oeste 0 -- -- 64
2019-06-04 23:00:00 21.1 33 Sudoeste 42 Sudoeste 0 -- -- 77
2019-06-04 22:00:00 21.3 35 Sudoeste 45 Sudoeste 0 -- -- 75
2019-06-04 21:00:00 22.6 38 Sudoeste 45 Sudoeste 0 -- -- 68
2019-06-04 20:00:00 24.8 35 Sudoeste 51 Sudoeste 0 -- -- 59
2019-06-04 19:00:00 23.9 43 Sudoeste 51 Sudoeste 0 -- -- 64
2019-06-04 18:00:00 21.8 38 Sudoeste 48 Sudoeste 0 -- -- 74
2019-06-04 17:00:00 22.7 26 Sudoeste 41 Sudoeste 0 -- -- 71
2019-06-04 16:00:00 24.1 5 Sudeste 31 Sudoeste 0 -- -- 64
2019-06-04 15:00:00 23.3 4 Este 10 Sudeste 0 -- -- 68
2019-06-04 14:00:00 22.8 4 Este 10 Sudeste 0 -- -- 65
2019-06-04 13:00:00 21.8 5 Este 9 Este 0 -- -- 66
2019-06-04 12:00:00 21 3 Sudoeste 33 Sur 0 -- -- 71
2019-06-04 11:00:00 20.3 8 Sudeste 26 Sur 0 -- -- 71
2019-06-04 10:00:00 20.2 3 Sudeste 8 Sudeste 0 -- -- 70
2019-06-04 09:00:00 20.7 2 Sur 4 Sudoeste 0 -- -- 51
2019-06-04 08:00:00 19.5 0 Calma 8 Norte 0 -- -- 48
2019-06-04 07:00:00 16.4 4 Norte 6 Oeste 0 -- -- 59
2019-06-04 06:00:00 17.1 3 Oeste 10 Noroeste 0 -- -- 62
2019-06-04 05:00:00 17 5 Noroeste 13 Noroeste 0 -- -- 61
2019-06-04 04:00:00 17.1 6 Noroeste 9 Norte 0 -- -- 62
2019-06-04 03:00:00 17.6 2 Noroeste 5 Noroeste 0 -- -- 63
2019-06-04 02:00:00 18 3 Noroeste 10 Noroeste 0 -- -- 69
2019-06-04 01:00:00 18.2 5 Noroeste 8 Noroeste 0 -- -- 70
2019-06-04 00:00:00 18.9 3 Oeste 6 Oeste 0 -- -- 83
2019-06-03 23:00:00 19.7 3 Sudoeste 5 Sur 0 -- -- 87
2019-06-03 22:00:00 20.1 2 Norte 5 Sudoeste 0 -- -- 83
2019-06-03 21:00:00 20.1 3 Sur 5 Sudoeste 0 -- -- 84
2019-06-03 20:00:00 21.8 0 Calma 5 Sudeste 0 -- -- 77
2019-06-03 19:00:00 21.4 4 Sudeste 6 Sur 0 -- -- 79
2019-06-03 18:00:00 21.4 4 Sudeste 6 Sur 0 -- -- 79
2019-06-03 17:00:00 21 5 Sur 8 Sur 0 -- -- 81
2019-06-03 16:00:00 20.9 4 Sudeste 8 Sur 0 -- -- 81
2019-06-03 15:00:00 20.6 6 Sur 8 Sur 0 -- -- 82
2019-06-03 14:00:00 20.6 4 Sur 9 Sur 0 -- -- 81
2019-06-03 13:00:00 20.2 6 Sur 8 Sur 0 -- -- 82
2019-06-03 12:00:00 20.4 5 Sur 6 Sur 0 -- -- 79
2019-06-03 11:00:00 20.5 4 Sur 5 Sudoeste 0 -- -- 71
2019-06-03 10:00:00 20.9 4 Sudoeste 8 Sudoeste 0 -- -- 62
2019-06-03 09:00:00 20.9 5 Sudoeste 14 Norte 0 -- -- 49
2019-06-03 08:00:00 18.4 11 Norte 15 Norte 0 -- -- 48
2019-06-03 07:00:00 17.6 10 Noroeste 16 Noroeste 0 -- -- 49
2019-06-03 06:00:00 17.9 10 Noroeste 18 Norte 0 -- -- 50
2019-06-03 05:00:00 17.9 12 Norte 17 Norte 0 -- -- 51
2019-06-03 04:00:00 18.1 10 Noroeste 17 Norte 0 -- -- 52
2019-06-03 03:00:00 18.1 7 Noroeste 13 Noroeste 0 -- -- 56
2019-06-03 02:00:00 18.4 7 Norte 13 Norte 0 -- -- 59
2019-06-03 01:00:00 19.2 5 Norte 13 Noroeste 0 -- -- 60
2019-06-03 00:00:00 19.6 5 Norte 8 Norte 0 -- -- 63
2019-06-02 23:00:00 20.1 3 Nordeste 5 Nordeste 0 -- -- 68
2019-06-02 22:00:00 20.4 4 Nordeste 7 Nordeste 0 -- -- 69
2019-06-02 21:00:00 20.3 2 Sudeste 5 Este 0 -- -- 69
2019-06-02 20:00:00 22.2 3 Sudoeste 6 Sudoeste 0 -- -- 65
2019-06-02 19:00:00 22 4 Sur 8 Sudeste 0 -- -- 64
2019-06-02 18:00:00 21.3 6 Sur 11 Sur 0 -- -- 69
2019-06-02 17:00:00 22.5 3 Este 18 Sudeste 0 -- -- 64
2019-06-02 16:00:00 21.2 10 Nordeste 19 Este 0 -- -- 62
2019-06-02 15:00:00 20.6 11 Sudeste 23 Sudeste 0 -- -- 72
2019-06-02 14:00:00 20.4 18 Sudeste 26 Sudeste 0 -- -- 69
2019-06-02 13:00:00 20.5 17 Sudeste 28 Sudeste 0 -- -- 68
2019-06-02 12:00:00 20.3 20 Sudeste 26 Sudeste 0 -- -- 70
2019-06-02 11:00:00 20.6 17 Sudeste 26 Este 0 -- -- 65
2019-06-02 10:00:00 20.8 20 Sudeste 26 Sudeste 0 -- -- 64
2019-06-02 09:00:00 22.6 5 Nordeste 12 Norte 0 -- -- 41
2019-06-02 08:00:00 19 8 Noroeste 14 Noroeste 0 -- -- 47
2019-06-02 07:00:00 17.3 10 Noroeste 14 Norte 0 -- -- 50
2019-06-02 06:00:00 18.4 4 Norte 19 Nordeste 0 -- -- 50
2019-06-02 05:00:00 20.2 16 Este 25 Nordeste 0 -- -- 47
2019-06-02 04:00:00 19.3 7 Norte 27 Este 0 -- -- 46
2019-06-02 03:00:00 21.1 17 Nordeste 26 Nordeste 0 -- -- 57
2019-06-02 02:00:00 21.1 18 Este 26 Nordeste 0 -- -- 58
2019-06-02 01:00:00 21 13 Nordeste 25 Nordeste 0 -- -- 55
2019-06-02 00:00:00 20.3 15 Este 21 Este 0 -- -- 66
2019-06-01 23:00:00 20.7 17 Este 23 Este 0 -- -- 57
2019-06-01 22:00:00 19.7 16 Este 23 Sudeste 0 -- -- 77
2019-06-01 21:00:00 19.8 14 Sudeste 27 Sudeste 0 -- -- 74
2019-06-01 20:00:00 20.3 22 Sudeste 30 Sudeste 0 -- -- 72
2019-06-01 19:00:00 20.5 23 Este 33 Sudeste 0 -- -- 71
2019-06-01 18:00:00 20.4 25 Sudeste 33 Sudeste 0 -- -- 70
2019-06-01 17:00:00 20.4 23 Sudeste 33 Sudeste 0 -- -- 70
2019-06-01 16:00:00 20.5 27 Sudeste 33 Sudeste 0 -- -- 66
2019-06-01 15:00:00 20.6 25 Sudeste 33 Sudeste 0 -- -- 67
2019-06-01 14:00:00 20.9 23 Sudeste 33 Sudeste 0 -- -- 61
2019-06-01 13:00:00 20.8 25 Sudeste 35 Este 0 -- -- 61
2019-06-01 12:00:00 20.8 24 Sudeste 33 Este 0 -- -- 61
2019-06-01 11:00:00 20.6 18 Este 34 Este 0 -- -- 65
2019-06-01 10:00:00 21.5 17 Este 32 Este 0 -- -- 59
2019-06-01 09:00:00 21.5 21 Este 35 Este 0 -- -- 51
2019-06-01 08:00:00 20.7 18 Este 28 Nordeste 0 -- -- 55
2019-06-01 07:00:00 19.3 9 Nordeste 28 Nordeste 0 -- -- 56
2019-06-01 06:00:00 18.1 9 Nordeste 31 Este 0 -- -- 70
2019-06-01 05:00:00 19.2 17 Nordeste 24 Este 0 -- -- 74
2019-06-01 04:00:00 18.9 10 Este 19 Sudeste 0 -- -- 79
2019-06-01 03:00:00 19.1 8 Este 16 Norte 0 -- -- 76
2019-06-01 02:00:00 19.3 6 Norte 18 Este 0 -- -- 73
2019-06-01 01:00:00 18.4 4 Norte 9 Norte 0 -- -- 73
2019-06-01 00:00:00 18.9 5 Norte 10 Este 0 -- -- 73
2019-05-31 23:00:00 19.4 6 Este 18 Sudeste 0 -- -- 74
2019-05-31 22:00:00 19.5 15 Sudeste 25 Sudeste 0 -- -- 76
2019-05-31 21:00:00 19.7 18 Sudeste 27 Este 0 -- -- 75
2019-05-31 20:00:00 20.2 18 Sudeste 29 Sudeste 0 -- -- 72
2019-05-31 19:00:00 20.2 22 Sudeste 32 Este 0 -- -- 72
2019-05-31 18:00:00 20.4 24 Sudeste 33 Este 0 -- -- 70
2019-05-31 17:00:00 20.3 23 Este 40 Este 0 -- -- 71
2019-05-31 16:00:00 20.5 31 Este 43 Sudeste 0 -- -- 64
2019-05-31 15:00:00 21 33 Este 43 Este 0 -- -- 64
2019-05-31 14:00:00 20.6 30 Este 42 Este 0 -- -- 69
2019-05-31 13:00:00 20.8 30 Este 38 Este 0 -- -- 62
2019-05-31 12:00:00 20.6 27 Este 41 Este 0 -- -- 64
2019-05-31 11:00:00 21 26 Este 32 Este 0 -- -- 63
2019-05-31 10:00:00 20.9 22 Este 30 Este 0 -- -- 64
2019-05-31 09:00:00 20.4 21 Nordeste 35 Nordeste 0 -- -- 58
2019-05-31 08:00:00 19.8 21 Nordeste 28 Nordeste 0 -- -- 63
2019-05-31 07:00:00 19.1 17 Este 33 Este 0 -- -- 65
2019-05-31 06:00:00 19.5 24 Nordeste 36 Nordeste 0 -- -- 60
2019-05-31 05:00:00 19.5 23 Este 42 Nordeste 0 -- -- 60
2019-05-31 04:00:00 19.5 25 Este 39 Nordeste 0 -- -- 62
2019-05-31 03:00:00 19.8 24 Este 38 Nordeste 0 -- -- 60
2019-05-31 02:00:00 20.1 28 Nordeste 39 Este 0 -- -- 57
2019-05-31 01:00:00 19.9 22 Este 34 Nordeste 0 -- -- 60
2019-05-31 00:00:00 20.7 26 Este 36 Nordeste 0 -- -- 50
2019-05-30 23:00:00 20.9 23 Nordeste 39 Este 0 -- -- 47
2019-05-30 22:00:00 20.7 22 Este 34 Este 0 -- -- 56
2019-05-30 21:00:00 20.4 24 Este 30 Este 0 -- -- 61
2019-05-30 20:00:00 20.1 22 Este 34 Sudeste 0 -- -- 73
2019-05-30 19:00:00 20.2 27 Este 41 Este 0 -- -- 69
2019-05-30 18:00:00 20.8 30 Este 40 Este 0 -- -- 68
2019-05-30 17:00:00 20.8 26 Este 37 Este 0 -- -- 70
2019-05-30 16:00:00 20.1 32 Este 45 Este 0 -- -- 71
2019-05-30 15:00:00 20.1 33 Este 42 Este 0 -- -- 68
2019-05-30 14:00:00 20.1 33 Este 41 Este 0 -- -- 71
2019-05-30 13:00:00 20.4 29 Este 40 Este 0 -- -- 75
2019-05-30 12:00:00 20 30 Este 41 Este 0 -- -- 77
2019-05-30 11:00:00 20.4 27 Este 39 Este 0 -- -- 77
2019-05-30 10:00:00 19.7 24 Este 41 Nordeste 0 -- -- 78
2019-05-30 09:00:00 19.5 31 Nordeste 42 Nordeste 0 -- -- 75
2019-05-30 08:00:00 19.2 27 Nordeste 39 Nordeste 0 -- -- 73
2019-05-30 07:00:00 19.3 27 Nordeste 37 Nordeste 0 -- -- 66
2019-05-30 06:00:00 19 18 Nordeste 37 Nordeste 0 -- -- 71
2019-05-30 05:00:00 19.4 26 Nordeste 36 Nordeste 0 -- -- 63
2019-05-30 04:00:00 19.7 24 Nordeste 36 Nordeste 0 -- -- 59
2019-05-30 03:00:00 19.6 22 Nordeste 35 Nordeste 0 -- -- 64
2019-05-30 02:00:00 19.8 25 Nordeste 39 Nordeste 0 -- -- 63
2019-05-30 01:00:00 19.9 25 Nordeste 33 Nordeste 0 -- -- 65
2019-05-30 00:00:00 20 25 Nordeste 37 Este 0 -- -- 68
2019-05-29 23:00:00 20.2 28 Nordeste 38 Nordeste 0 -- -- 65
2019-05-29 22:00:00 20.3 26 Este 35 Este 0 -- -- 68
2019-05-29 21:00:00 20.4 23 Este 31 Este 0 -- -- 72
2019-05-29 20:00:00 20.5 25 Este 33 Este 0 -- -- 72
2019-05-29 19:00:00 20.9 18 Este 23 Este 0 -- -- 76
2019-05-29 18:00:00 20.7 18 Este 24 Este 0 -- -- 76
2019-05-29 17:00:00 20.8 19 Este 26 Este 0 -- -- 76
2019-05-29 16:00:00 20.5 22 Este 28 Este 0 -- -- 76
2019-05-29 15:00:00 20.7 23 Este 30 Este 0 -- -- 73
2019-05-29 14:00:00 20.9 19 Este 27 Sudeste 0 -- -- 67
2019-05-29 13:00:00 21.8 23 Este 33 Este 0 -- -- 61
2019-05-29 12:00:00 21.9 26 Este 33 Este 0 -- -- 59
2019-05-29 11:00:00 22.2 24 Este 32 Este 0 -- -- 57
2019-05-29 10:00:00 22.2 25 Este 37 Este 0 -- -- 63
2019-05-29 09:00:00 21.8 25 Este 37 Nordeste 0 -- -- 68
2019-05-29 08:00:00 21.3 20 Este 34 Nordeste 0 -- -- 75
2019-05-29 07:00:00 21.1 19 Nordeste 34 Nordeste 0 -- -- 69
2019-05-29 06:00:00 20.9 13 Nordeste 43 Nordeste 0 -- -- 69
2019-05-29 05:00:00 20.8 23 Nordeste 38 Nordeste 0 -- -- 67
2019-05-29 04:00:00 19.3 4 Norte 10 Noroeste 0 -- -- 79
2019-05-29 03:00:00 19.4 0 Calma 5 Este 0 -- -- 83
2019-05-29 02:00:00 19.5 4 Noroeste 7 Oeste 0 -- -- 86
2019-05-29 01:00:00 20 3 Sudoeste 4 Oeste 0 -- -- 89
2019-05-29 00:00:00 20.2 0 Calma 5 Sudeste 0 -- -- 89
2019-05-28 23:00:00 20.5 5 Oeste 6 Sudoeste 0 -- -- 87
2019-05-28 22:00:00 20.8 0 Calma 5 Este 0 -- -- 85
2019-05-28 21:00:00 21.3 3 Este 6 Este 0 -- -- 81
2019-05-28 20:00:00 23.1 4 Nordeste 9 Nordeste 0 -- -- 75
2019-05-28 19:00:00 23.4 5 Nordeste 10 Nordeste 0 -- -- 74
2019-05-28 18:00:00 23.4 8 Este 10 Nordeste 0 -- -- 77
2019-05-28 17:00:00 22.6 5 Este 9 Este 0 -- -- 79
2019-05-28 16:00:00 23.1 7 Este 11 Este 0 -- -- 77
2019-05-28 15:00:00 23 7 Este 10 Este 0 -- -- 80
2019-05-28 14:00:00 22.7 7 Este 11 Este 0 -- -- 80
2019-05-28 13:00:00 21.5 7 Este 9 Este 0 -- -- 83
2019-05-28 12:00:00 21.2 4 Este 6 Este 0 -- -- 81
2019-05-28 11:00:00 21.3 3 Sur 6 Sudoeste 0 -- -- 75
2019-05-28 10:00:00 21.3 5 Sudoeste 6 Sudoeste 0 -- -- 74
2019-05-28 09:00:00 20.9 0 Calma 3 Oeste 0 -- -- 73
2019-05-28 08:00:00 20.3 0 Calma 9 Norte 0 -- -- 72
2019-05-28 07:00:00 18.3 4 Norte 9 Noroeste 0 -- -- 77
2019-05-28 06:00:00 18.2 2 Norte 6 Noroeste 0 -- -- 81
2019-05-28 05:00:00 18.5 5 Noroeste 8 Noroeste 0 -- -- 81
2019-05-28 04:00:00 19 4 Noroeste 8 Norte 0 -- -- 81
2019-05-28 03:00:00 19.3 5 Norte 10 Norte 0 -- -- 82
2019-05-28 02:00:00 19.3 7 Nordeste 13 Nordeste 0 -- -- 85
2019-05-28 01:00:00 19.2 7 Nordeste 10 Nordeste 0 -- -- 83
2019-05-28 00:00:00 19.4 7 Nordeste 11 Este 0 -- -- 83
2019-05-27 23:00:00 19.9 5 Sudeste 10 Este 0 -- -- 82
2019-05-27 22:00:00 20.7 8 Sudoeste 17 Sudoeste 0 -- -- 77
2019-05-27 21:00:00 20.9 13 Sudoeste 16 Sudoeste 0 -- -- 74
2019-05-27 20:00:00 21.6 9 Sudoeste 18 Sudoeste 0 -- -- 76
2019-05-27 19:00:00 21.9 11 Sudoeste 16 Sudoeste 0 -- -- 72
2019-05-27 18:00:00 23.1 8 Sudoeste 10 Sudoeste 0 -- -- 71
2019-05-27 17:00:00 23.2 6 Sudoeste 10 Sudoeste 0 -- -- 69
2019-05-27 16:00:00 22.4 6 Sudoeste 8 Sudoeste 0 -- -- 68
2019-05-27 15:00:00 21.6 5 Sur 9 Sudoeste 0 -- -- 66
2019-05-27 14:00:00 20.8 6 Sur 9 Sur 0 -- -- 72
2019-05-27 13:00:00 20.2 5 Sur 8 Sudoeste 0 -- -- 72
2019-05-27 12:00:00 19.9 6 Sudoeste 8 Sudoeste 0 -- -- 76
2019-05-27 11:00:00 19.7 4 Sur 6 Sur 0 -- -- 74
2019-05-27 10:00:00 19.3 5 Sur 8 Sur 0 -- -- 72
2019-05-27 09:00:00 20.5 0 Calma 10 Noroeste 0 -- -- 63
2019-05-27 08:00:00 18 7 Noroeste 13 Noroeste 0 -- -- 63
2019-05-27 07:00:00 16.6 5 Noroeste 13 Noroeste 0 -- -- 67
2019-05-27 06:00:00 16.8 8 Noroeste 11 Norte 0 -- -- 68
2019-05-27 05:00:00 17 0 Calma 9 Norte 0 -- -- 69
2019-05-27 04:00:00 17.7 9 Norte 15 Noroeste 0 -- -- 64
2019-05-27 03:00:00 17.8 6 Norte 13 Noroeste 0 -- -- 67
2019-05-27 02:00:00 18.2 3 Noroeste 11 Norte 0 -- -- 69
2019-05-27 01:00:00 18.5 3 Norte 5 Noroeste 0 -- -- 72
2019-05-27 00:00:00 18.7 0 Calma 5 Nordeste 0 -- -- 80